Time;durP1;ratioP1;P1;durP2;ratioP2;P2;SDS_P1;SDS_P2;PMS_P1;PMS_P2;Temp;Humidity;BMP_temperature;BMP_pressure;BME280_temperature;BME280_humidity;BME280_pressure;Samples;Min_cycle;Max_cycle;Signal;HPM_P1;HPM_P2
2022/12/21 00:01:23;;;;;;;10.88;5.97;;;;;;;3.08;56.06;101067.08;1826253;77;21082;-61
2022/12/21 00:03:56;;;;;;;8.65;4.50;;;;;;;3.09;56.17;101067.48;1836061;77;21078;-61
2022/12/21 00:06:24;;;;;;;7.70;4.37;;;;;;;3.12;56.14;101054.80;1773658;79;21301;-60
2022/12/21 00:08:55;;;;;;;13.98;5.67;;;;;;;3.13;56.17;101056.52;1794141;79;21082;-61
2022/12/21 00:11:22;;;;;;;9.18;4.20;;;;;;;3.16;56.10;101057.23;1770907;79;21541;-60
2022/12/21 00:13:50;;;;;;;12.30;6.30;;;;;;;3.14;56.06;101069.46;1769882;79;21099;-60
2022/12/21 00:16:19;;;;;;;10.53;5.12;;;;;;;3.12;55.96;101077.75;1751875;80;21061;-60
2022/12/21 00:18:46;;;;;;;12.07;5.72;;;;;;;3.11;56.02;101073.47;1770047;79;21189;-60
2022/12/21 00:21:17;;;;;;;10.93;5.70;;;;;;;3.11;56.08;101079.10;1758853;80;20989;-60
2022/12/21 00:23:46;;;;;;;18.20;5.67;;;;;;;3.16;56.10;101081.95;1776687;79;21504;-60
2022/12/21 00:26:16;;;;;;;11.35;5.85;;;;;;;3.19;55.94;101074.92;1774259;79;21555;-60
2022/12/21 00:28:43;;;;;;;13.53;5.95;;;;;;;3.21;55.71;101075.70;1762552;79;21532;-60
2022/12/21 00:31:13;;;;;;;10.48;5.95;;;;;;;3.19;55.73;101060.16;1775383;80;21881;-60
2022/12/21 00:33:40;;;;;;;12.47;6.33;;;;;;;3.23;55.69;101072.59;1775860;80;21031;-60
2022/12/21 00:36:09;;;;;;;14.73;6.17;;;;;;;3.22;55.64;101071.75;1765443;80;21091;-60
2022/12/21 00:38:36;;;;;;;11.53;6.22;;;;;;;3.23;55.55;101073.89;1844040;76;21011;-60
2022/12/21 00:41:06;;;;;;;13.85;6.50;;;;;;;3.23;55.50;101076.48;1845353;77;21038;-60
2022/12/21 00:43:35;;;;;;;12.03;5.97;;;;;;;3.22;55.61;101078.72;1845855;77;21128;-60
2022/12/21 00:46:02;;;;;;;13.15;7.28;;;;;;;3.24;55.62;101067.80;1843197;76;21018;-60
2022/12/21 00:48:30;;;;;;;12.85;7.33;;;;;;;3.24;55.58;101056.09;1837780;77;21462;-60
2022/12/21 00:51:11;;;;;;;10.28;6.03;;;;;;;3.26;55.61;101060.34;1843384;77;21527;-60
2022/12/21 00:53:38;;;;;;;11.18;5.12;;;;;;;3.27;55.67;101052.08;1842289;77;21121;-60
2022/12/21 00:56:06;;;;;;;14.75;7.30;;;;;;;3.29;55.72;101046.34;1844607;77;21214;-60
2022/12/21 00:58:33;;;;;;;12.50;6.85;;;;;;;3.29;55.71;101042.45;1828856;77;21535;-60
2022/12/21 01:01:06;;;;;;;11.70;6.03;;;;;;;3.26;55.79;101039.53;1837785;77;21359;-60
2022/12/21 01:03:32;;;;;;;16.95;9.65;;;;;;;3.29;55.80;101022.94;1845750;76;21497;-61
2022/12/21 01:05:59;;;;;;;14.10;5.05;;;;;;;3.30;55.80;101024.64;1825775;77;21527;-60
2022/12/21 01:08:26;;;;;;;10.40;4.72;;;;;;;3.31;55.73;101024.59;1797929;78;21214;-60
2022/12/21 01:11:00;;;;;;;11.95;5.12;;;;;;;3.28;55.60;101035.11;1796448;78;21027;-60
2022/12/21 01:13:28;;;;;;;11.45;5.95;;;;;;;3.25;55.72;101036.98;1798891;77;21085;-59
2022/12/21 01:15:55;;;;;;;9.38;5.65;;;;;;;3.27;55.75;101033.41;1782876;79;21035;-59
2022/12/21 01:18:21;;;;;;;17.25;10.78;;;;;;;3.28;55.73;101023.87;1774138;79;21042;-59
2022/12/21 01:20:50;;;;;;;12.73;6.08;;;;;;;3.27;55.68;101025.59;1798620;77;21273;-59
2022/12/21 01:23:18;;;;;;;11.38;5.55;;;;;;;3.29;55.62;101020.34;1800969;78;20999;-59
2022/12/21 01:25:45;;;;;;;8.78;5.30;;;;;;;3.29;55.47;101012.07;1792579;79;21557;-59
2022/12/21 01:28:12;;;;;;;10.30;5.53;;;;;;;3.30;55.46;101017.68;1800816;79;21030;-59
2022/12/21 01:30:38;;;;;;;18.77;11.28;;;;;;;3.33;55.45;101024.53;1785911;77;21042;-59
2022/12/21 01:33:07;;;;;;;15.58;6.30;;;;;;;3.36;55.38;101029.59;1773501;79;21242;-60
2022/12/21 01:35:36;;;;;;;13.10;6.53;;;;;;;3.39;55.24;101021.66;1800248;78;21519;-59
2022/12/21 01:38:03;;;;;;;12.35;5.87;;;;;;;3.40;55.25;101015.56;1764318;79;21019;-59
2022/12/21 01:40:30;;;;;;;15.72;10.05;;;;;;;3.41;55.26;101009.90;1805952;77;21049;-59
2022/12/21 01:42:57;;;;;;;9.13;4.97;;;;;;;3.44;55.19;100997.61;1792595;78;21034;-59
2022/12/21 01:45:30;;;;;;;11.60;6.50;;;;;;;3.46;55.02;100997.11;1800370;79;21533;-59
2022/12/21 01:48:02;;;;;;;16.40;10.53;;;;;;;3.49;55.06;100998.73;1804763;77;21037;-61
2022/12/21 01:50:56;;;;;;;10.78;5.37;;;;;;;3.50;54.93;100998.67;1791351;79;21193;-60
2022/12/21 01:53:36;;;;;;;12.82;5.85;;;;;;;3.51;54.91;100996.47;1794947;78;21074;-60
2022/12/21 01:56:06;;;;;;;11.83;6.08;;;;;;;3.50;54.73;100993.47;1795142;79;21042;-60
2022/12/21 01:58:32;;;;;;;10.63;6.20;;;;;;;3.49;54.88;100989.16;1796345;78;21200;-60
2022/12/21 02:00:59;;;;;;;11.68;5.85;;;;;;;3.50;54.83;100975.72;1786444;78;21507;-60
2022/12/21 02:03:31;;;;;;;13.15;6.10;;;;;;;3.49;54.91;100976.61;1798643;78;21026;-60
2022/12/21 02:06:12;;;;;;;11.38;5.40;;;;;;;3.49;54.89;100985.26;1801216;78;21069;-59
2022/12/21 02:08:40;;;;;;;10.70;4.95;;;;;;;3.52;54.92;100989.50;1814240;78;21718;-59
2022/12/21 02:11:07;;;;;;;10.82;5.72;;;;;;;3.55;54.86;100978.97;1812460;76;21960;-61
2022/12/21 02:13:34;;;;;;;15.15;10.75;;;;;;;3.56;54.77;100979.34;1829349;76;21030;-61
2022/12/21 02:16:20;;;;;;;11.25;6.00;;;;;;;3.58;54.78;100981.89;1810742;78;21087;-61
2022/12/21 02:19:10;;;;;;;15.60;7.33;;;;;;;3.59;54.63;100971.88;1826857;78;21031;-61
2022/12/21 02:21:56;;;;;;;11.38;5.62;;;;;;;3.60;54.68;100967.05;1816773;77;21022;-61
2022/12/21 02:25:04;;;;;;;14.95;7.10;;;;;;;3.58;54.68;100968.87;1805669;78;21253;-61
2022/12/21 02:28:16;;;;;;;10.48;5.60;;;;;;;3.59;54.56;100971.88;1823057;78;21067;-61
2022/12/21 02:31:14;;;;;;;13.28;5.58;;;;;;;3.55;54.69;100967.27;1815030;77;20975;-61
2022/12/21 02:34:15;;;;;;;11.12;6.33;;;;;;;3.55;54.68;100950.35;1825555;78;21596;-59
2022/12/21 02:37:02;;;;;;;11.83;6.33;;;;;;;3.52;54.72;100946.57;1829037;78;21415;-60
2022/12/21 02:39:44;;;;;;;9.90;5.80;;;;;;;3.47;54.80;100937.64;1814780;77;21239;-60
2022/12/21 02:45:23;;;;;;;12.53;5.35;;;;;;;3.43;54.84;100947.80;1820226;78;20987;-60
2022/12/21 02:48:01;;;;;;;13.32;6.55;;;;;;;3.41;54.92;100945.70;1782015;80;22280;-60
2022/12/21 02:50:36;;;;;;;10.32;5.12;;;;;;;3.41;54.96;100943.55;1744823;81;21603;-60
2022/12/21 02:53:08;;;;;;;11.93;6.60;;;;;;;3.41;55.02;100944.39;1824511;78;21822;-59
2022/12/21 02:55:34;;;;;;;12.25;6.65;;;;;;;3.38;55.01;100942.37;1820316;78;21075;-60
2022/12/21 02:58:20;;;;;;;13.50;6.80;;;;;;;3.36;55.13;100954.14;1825996;78;21046;-60
2022/12/21 03:01:01;;;;;;;10.10;6.85;;;;;;;3.35;55.20;100968.91;1813474;78;21051;-60
2022/12/21 03:04:20;;;;;;;9.90;5.62;;;;;;;3.37;55.18;100974.06;1811549;78;20998;-60
2022/12/21 03:07:11;;;;;;;13.58;6.12;;;;;;;3.37;55.15;100972.76;1762588;79;21684;-60
2022/12/21 03:13:25;;;;;;;12.90;6.70;;;;;;;3.37;55.16;100974.06;1672087;84;21069;-57
2022/12/21 03:16:22;;;;;;;11.90;5.53;;;;;;;3.37;55.22;100971.45;1673743;84;21050;-59
2022/12/21 03:19:01;;;;;;;14.43;7.87;;;;;;;3.37;55.19;100958.92;1673704;84;21123;-57
2022/12/21 03:21:38;;;;;;;12.18;6.78;;;;;;;3.38;55.17;100951.48;1664424;84;21160;-58
2022/12/21 03:24:19;;;;;;;14.20;6.53;;;;;;;3.41;55.21;100951.36;1670811;84;21124;-57
2022/12/21 03:26:56;;;;;;;17.10;8.78;;;;;;;3.43;55.26;100949.11;1668579;84;21069;-57
2022/12/21 03:29:27;;;;;;;13.83;7.37;;;;;;;3.45;55.28;100950.34;1669766;84;21522;-57
2022/12/21 03:31:58;;;;;;;14.23;7.67;;;;;;;3.47;55.19;100947.22;1672209;84;21118;-57
2022/12/21 03:34:30;;;;;;;18.87;12.75;;;;;;;3.49;55.13;100948.00;1680875;84;21213;-56
2022/12/21 03:37:02;;;;;;;11.03;6.75;;;;;;;3.48;55.08;100947.16;1645430;85;21511;-57
2022/12/21 03:39:28;;;;;;;11.55;5.90;;;;;;;3.50;55.03;100939.30;1650432;85;21081;-57
2022/12/21 03:42:10;;;;;;;12.23;6.15;;;;;;;3.48;55.00;100944.98;1625608;87;21124;-56
2022/12/21 03:44:44;;;;;;;11.85;7.05;;;;;;;3.48;54.99;100943.25;1641403;85;21485;-58
2022/12/21 03:47:20;;;;;;;12.37;6.15;;;;;;;3.48;55.08;100931.98;1642610;85;21160;-58
2022/12/21 03:49:51;;;;;;;12.93;6.13;;;;;;;3.48;55.05;100935.45;1642017;85;21042;-58
2022/12/21 03:52:25;;;;;;;13.00;6.90;;;;;;;3.46;55.02;100935.97;1617329;86;21550;-58
2022/12/21 03:55:10;;;;;;;14.13;6.42;;;;;;;3.47;55.04;100932.44;1619195;87;21152;-58
2022/12/21 03:57:36;;;;;;;11.18;7.03;;;;;;;3.46;55.06;100933.38;1647214;85;21532;-57
2022/12/21 04:01:55;;;;;;;18.27;13.05;;;;;;;3.45;55.28;100921.27;1788099;78;22484;-60
2022/12/21 04:04:26;;;;;;;16.12;6.33;;;;;;;3.54;54.91;100923.47;1776787;79;21042;-61
2022/12/21 04:09:34;;;;;;;12.53;6.05;;;;;;;3.44;55.21;100932.56;1796358;77;22697;-59
2022/12/21 04:14:45;;;;;;;14.03;6.40;;;;;;;3.50;54.80;100928.88;1733772;80;22447;-59
2022/12/21 04:17:11;;;;;;;13.25;7.22;;;;;;;3.48;54.81;100936.75;1785286;80;21073;-60
2022/12/21 04:28:07;;;;;;;11.83;6.97;;;;;;;3.47;54.92;100936.34;1766695;80;21277;-61
2022/12/21 04:32:52;;;;;;;19.10;12.58;;;;;;;3.38;55.47;100933.27;1786562;78;22523;-60
2022/12/21 04:35:18;;;;;;;13.80;7.42;;;;;;;3.56;55.05;100927.77;1773548;79;21327;-60
2022/12/21 04:37:45;;;;;;;12.03;6.97;;;;;;;3.61;54.90;100934.92;1766776;79;21970;-60
2022/12/21 04:40:11;;;;;;;13.40;6.97;;;;;;;3.56;55.01;100937.71;1761440;79;21362;-60
2022/12/21 04:42:39;;;;;;;11.80;6.58;;;;;;;3.61;54.85;100925.81;1764551;80;20963;-60
2022/12/21 04:45:07;;;;;;;12.50;7.17;;;;;;;3.61;54.68;100929.25;1766081;79;21014;-60
2022/12/21 04:47:34;;;;;;;16.95;7.50;;;;;;;3.60;54.71;100924.98;1760554;79;21602;-60
2022/12/21 04:50:00;;;;;;;13.30;6.58;;;;;;;3.58;54.73;100938.52;1780009;79;21300;-60
2022/12/21 04:52:27;;;;;;;16.20;7.65;;;;;;;3.58;54.69;100935.05;1760225;80;20989;-59
2022/12/21 04:54:53;;;;;;;14.87;6.95;;;;;;;3.58;54.61;100935.05;1768706;79;21019;-59
2022/12/21 04:57:20;;;;;;;16.73;6.62;;;;;;;3.54;54.52;100929.13;1765235;80;20995;-60
2022/12/21 04:59:46;;;;;;;13.48;7.12;;;;;;;3.50;54.51;100933.62;1749794;80;21062;-60
2022/12/21 05:02:14;;;;;;;15.13;7.37;;;;;;;3.45;54.58;100932.13;1761248;80;21226;-59
2022/12/21 05:04:41;;;;;;;19.70;12.93;;;;;;;3.42;54.62;100930.48;1773739;79;20999;-61
2022/12/21 05:07:07;;;;;;;14.58;6.47;;;;;;;3.40;54.70;100928.87;1718019;82;21038;-60
2022/12/21 05:09:34;;;;;;;12.82;7.03;;;;;;;3.41;54.67;100914.94;1715187;81;21114;-61
2022/12/21 05:12:01;;;;;;;12.93;5.83;;;;;;;3.41;54.74;100923.58;1717720;82;21070;-60
2022/12/21 05:14:27;;;;;;;13.78;6.33;;;;;;;3.40;54.66;100918.01;1716838;81;21531;-59
2022/12/21 05:16:54;;;;;;;11.18;5.97;;;;;;;3.38;54.69;100920.27;1720117;82;21605;-61
2022/12/21 05:19:20;;;;;;;20.00;13.25;;;;;;;3.34;54.77;100927.36;1711399;82;21121;-61
2022/12/21 05:21:48;;;;;;;15.70;7.30;;;;;;;3.32;54.79;100918.77;1693021;82;21100;-61
2022/12/21 05:24:14;;;;;;;15.38;6.67;;;;;;;3.34;54.86;100929.49;1717258;81;21033;-61
2022/12/21 05:26:41;;;;;;;20.05;12.78;;;;;;;3.34;54.86;100919.09;1718847;81;21273;-61
2022/12/21 05:29:10;;;;;;;12.55;6.37;;;;;;;3.31;54.89;100923.14;1718534;81;21055;-61
2022/12/21 05:31:36;;;;;;;20.10;13.15;;;;;;;3.16;55.20;100922.44;1687003;83;21073;-61
2022/12/21 05:34:03;;;;;;;17.75;7.25;;;;;;;3.13;55.34;100916.92;1715672;82;21087;-60
2022/12/21 05:36:29;;;;;;;13.55;7.05;;;;;;;3.12;55.36;100919.13;1711197;82;21102;-61
2022/12/21 05:38:57;;;;;;;16.37;9.08;;;;;;;3.23;55.21;100920.00;1722266;82;21501;-60
2022/12/21 05:41:23;;;;;;;15.78;8.95;;;;;;;3.27;55.23;100916.82;1719032;82;21753;-60
2022/12/21 05:43:50;;;;;;;12.40;6.55;;;;;;;3.30;55.25;100909.73;1703170;83;22283;-61
2022/12/21 05:46:17;;;;;;;17.67;8.40;;;;;;;3.32;55.30;100922.22;1720194;82;21012;-61
2022/12/21 05:48:43;;;;;;;15.58;8.65;;;;;;;3.34;55.18;100932.09;1747190;81;21216;-60
2022/12/21 05:51:12;;;;;;;16.55;9.35;;;;;;;3.35;55.09;100932.96;1700864;83;21276;-61
2022/12/21 05:53:45;;;;;;;17.57;8.28;;;;;;;3.32;55.16;100928.72;1716421;82;21991;-62
2022/12/21 05:56:12;;;;;;;17.48;9.75;;;;;;;3.35;55.23;100926.45;1718865;81;21095;-59
2022/12/21 05:58:39;;;;;;;27.22;16.90;;;;;;;3.31;55.25;100923.14;1707657;82;21016;-59
2022/12/21 06:01:08;;;;;;;19.48;8.75;;;;;;;3.34;55.18;100930.80;1705440;82;21005;-59
2022/12/21 06:03:36;;;;;;;14.13;7.70;;;;;;;3.36;55.17;100921.63;1721345;81;21258;-60
2022/12/21 06:06:05;;;;;;;15.55;9.58;;;;;;;3.37;55.13;100922.03;1719882;82;21195;-60
2022/12/21 06:08:33;;;;;;;17.60;8.78;;;;;;;3.38;55.20;100926.77;1718171;82;21069;-60
2022/12/21 06:11:06;;;;;;;18.60;10.03;;;;;;;3.39;55.36;100920.20;1711952;82;21053;-59
2022/12/21 06:13:34;;;;;;;18.32;8.85;;;;;;;3.44;55.36;100920.86;1708641;81;21058;-60
2022/12/21 06:16:04;;;;;;;14.65;8.50;;;;;;;3.47;55.42;100922.50;1705761;82;21182;-60
2022/12/21 06:18:30;;;;;;;14.28;8.18;;;;;;;3.48;55.25;100919.84;1719523;82;21226;-60
2022/12/21 06:20:57;;;;;;;24.15;15.88;;;;;;;3.49;55.29;100922.81;1707567;82;21623;-59
2022/12/21 06:23:24;;;;;;;21.07;15.75;;;;;;;3.50;55.12;100917.17;1715026;82;21578;-60
2022/12/21 06:25:56;;;;;;;15.68;7.95;;;;;;;3.49;55.21;100914.17;1691891;83;21570;-60
2022/12/21 06:28:24;;;;;;;16.67;7.05;;;;;;;3.52;55.31;100918.78;1702091;83;21247;-60
2022/12/21 06:30:52;;;;;;;19.07;9.75;;;;;;;3.54;55.05;100922.63;1721078;81;21039;-60
2022/12/21 06:33:20;;;;;;;14.30;8.30;;;;;;;3.54;55.05;100917.42;1721883;82;21539;-60
2022/12/21 06:35:47;;;;;;;20.40;9.80;;;;;;;3.54;55.17;100916.13;1710306;81;21034;-60
2022/12/21 06:38:14;;;;;;;12.82;7.37;;;;;;;3.58;55.11;100928.55;1714755;82;21171;-60
2022/12/21 06:40:41;;;;;;;22.77;14.60;;;;;;;3.60;55.02;100922.81;1716416;81;21265;-60
2022/12/21 06:43:07;;;;;;;16.45;7.45;;;;;;;3.60;55.02;100927.58;1713814;82;21821;-60
2022/12/21 06:45:34;;;;;;;22.80;15.28;;;;;;;3.61;54.95;100925.35;1699959;83;21054;-61
2022/12/21 06:48:00;;;;;;;18.05;7.47;;;;;;;3.62;54.85;100927.05;1720050;81;21457;-60
2022/12/21 06:50:27;;;;;;;14.63;7.75;;;;;;;3.60;54.80;100929.31;1712703;81;21468;-60
2022/12/21 06:52:54;;;;;;;16.65;8.33;;;;;;;3.59;54.78;100931.55;1697680;82;21249;-61
2022/12/21 06:55:23;;;;;;;25.48;15.40;;;;;;;3.59;54.79;100939.36;1703639;81;21029;-61
2022/12/21 06:57:49;;;;;;;16.73;8.95;;;;;;;3.60;54.78;100935.83;1710562;82;21106;-61
2022/12/21 07:00:17;;;;;;;14.43;8.50;;;;;;;3.61;54.80;100938.36;1706192;82;21542;-61
2022/12/21 07:02:43;;;;;;;14.07;8.95;;;;;;;3.62;54.66;100941.84;1711833;82;21558;-62
2022/12/21 07:05:10;;;;;;;17.57;9.35;;;;;;;3.58;54.75;100946.33;1702963;82;21227;-61
2022/12/21 07:07:36;;;;;;;15.38;8.53;;;;;;;3.59;54.77;100952.37;1714017;82;21628;-61
2022/12/21 07:12:39;;;;;;;13.38;8.08;;;;;;;3.50;55.24;100945.80;1795558;78;22307;-60
2022/12/21 07:15:06;;;;;;;18.17;8.25;;;;;;;3.65;54.77;100950.81;1767242;80;21661;-60
2022/12/21 07:17:33;;;;;;;19.45;14.23;;;;;;;3.66;54.75;100948.59;1765734;80;22428;-60
2022/12/21 07:20:00;;;;;;;14.80;8.45;;;;;;;3.68;54.72;100946.33;1768799;79;22079;-61
2022/12/21 07:22:26;;;;;;;12.58;7.20;;;;;;;3.72;54.61;100944.44;1764648;80;21047;-60
2022/12/21 07:24:55;;;;;;;22.32;8.20;;;;;;;3.75;54.60;100945.61;1767003;79;21375;-60
2022/12/21 07:27:21;;;;;;;16.17;8.90;;;;;;;3.77;54.59;100941.18;1768811;79;21023;-60
2022/12/21 07:29:48;;;;;;;26.40;15.20;;;;;;;3.81;54.59;100942.73;1769509;79;21254;-60
2022/12/21 07:32:14;;;;;;;15.60;7.40;;;;;;;3.83;54.38;100947.87;1765445;79;21034;-61
2022/12/21 07:34:41;;;;;;;14.93;8.18;;;;;;;3.82;54.33;100947.50;1764401;79;21531;-60
2022/12/21 07:37:07;;;;;;;16.87;9.88;;;;;;;3.84;54.41;100951.70;1767229;80;21327;-60
2022/12/21 07:39:34;;;;;;;16.70;8.35;;;;;;;3.86;54.36;100950.34;1764334;80;21775;-60
2022/12/21 07:42:00;;;;;;;17.07;8.80;;;;;;;3.91;54.23;100954.90;1767769;80;21148;-60
2022/12/21 07:44:27;;;;;;;22.15;14.80;;;;;;;3.93;54.20;100954.83;1767478;80;21295;-59
2022/12/21 07:46:55;;;;;;;15.23;8.83;;;;;;;3.96;54.23;100950.80;1762068;80;21068;-59
2022/12/21 07:49:24;;;;;;;16.15;8.75;;;;;;;4.00;54.03;100953.65;1779806;80;21546;-59
2022/12/21 07:51:50;;;;;;;21.77;14.83;;;;;;;4.00;53.98;100953.21;1778005;80;21046;-61
2022/12/21 07:54:17;;;;;;;15.30;7.85;;;;;;;4.04;53.98;100948.25;1774259;79;21507;-59
2022/12/21 07:56:43;;;;;;;16.62;7.67;;;;;;;4.09;53.78;100949.36;1773266;80;21054;-60
2022/12/21 07:59:10;;;;;;;20.02;8.55;;;;;;;4.10;53.66;100951.03;1768245;80;21103;-60
2022/12/21 08:01:36;;;;;;;15.40;7.47;;;;;;;4.10;53.51;100954.94;1772510;80;21042;-60
2022/12/21 08:04:03;;;;;;;24.10;14.93;;;;;;;4.09;53.63;100953.27;1741924;81;21102;-60
2022/12/21 08:06:29;;;;;;;16.10;7.92;;;;;;;4.09;53.57;100951.49;1716473;82;21235;-59
2022/12/21 08:08:56;;;;;;;22.35;15.32;;;;;;;4.09;53.58;100955.40;1715646;82;21094;-60
2022/12/21 08:11:22;;;;;;;16.62;8.30;;;;;;;4.12;53.52;100954.87;1664753;84;21103;-60
2022/12/21 08:13:49;;;;;;;22.32;16.23;;;;;;;4.13;53.39;100954.80;1688657;83;21141;-60
2022/12/21 08:16:18;;;;;;;31.12;21.90;;;;;;;4.12;53.41;100953.13;1731567;82;21042;-59
2022/12/21 08:18:45;;;;;;;16.32;8.53;;;;;;;4.15;53.58;100956.88;1729180;82;21244;-60
2022/12/21 08:21:11;;;;;;;13.60;8.83;;;;;;;4.19;53.39;100943.29;1697528;83;21055;-60
2022/12/21 08:23:39;;;;;;;23.60;14.68;;;;;;;4.23;53.34;100946.13;1689933;83;21063;-60
2022/12/21 08:26:08;;;;;;;16.10;8.43;;;;;;;4.24;53.33;100940.86;1734274;81;21093;-61
2022/12/21 08:28:35;;;;;;;15.68;7.53;;;;;;;4.30;53.38;100940.19;1725728;82;21567;-60
2022/12/21 08:31:06;;;;;;;15.83;9.53;;;;;;;4.34;53.22;100945.64;1737117;81;21106;-60
2022/12/21 08:33:32;;;;;;;16.97;9.43;;;;;;;4.37;53.16;100942.90;1737521;82;21098;-60
2022/12/21 08:35:59;;;;;;;19.70;15.10;;;;;;;4.40;52.85;100944.07;1732061;82;21059;-61
2022/12/21 08:38:26;;;;;;;15.98;8.53;;;;;;;4.48;52.73;100942.43;1732543;82;21720;-60
2022/12/21 08:40:52;;;;;;;14.35;7.75;;;;;;;4.53;52.74;100936.55;1725691;82;22263;-61
2022/12/21 08:43:19;;;;;;;13.68;7.60;;;;;;;4.53;52.76;100930.88;1726408;82;21777;-59
2022/12/21 08:45:47;;;;;;;22.48;15.25;;;;;;;4.52;52.59;100930.94;1723942;82;21136;-60
2022/12/21 08:48:13;;;;;;;15.45;8.60;;;;;;;4.57;52.50;100929.83;1720306;82;21063;-59
2022/12/21 08:50:40;;;;;;;22.87;15.40;;;;;;;4.64;52.29;100931.70;1714911;82;21101;-59
2022/12/21 08:53:07;;;;;;;22.00;16.02;;;;;;;4.65;52.28;100923.77;1733716;82;21757;-59
2022/12/21 08:58:41;;;;;;;12.88;7.55;;;;;;;4.67;52.55;100911.97;1825268;76;23254;-60
2022/12/21 09:01:08;;;;;;;23.10;15.68;;;;;;;4.77;52.19;100914.53;1736258;80;20927;-60
2022/12/21 09:03:36;;;;;;;13.28;7.62;;;;;;;4.81;52.07;100912.66;1734224;81;21164;-60
2022/12/21 09:06:03;;;;;;;24.57;15.93;;;;;;;4.83;51.93;100912.11;1738403;81;21079;-60
2022/12/21 09:08:31;;;;;;;19.35;8.73;;;;;;;4.83;51.88;100902.98;1725359;81;21827;-60
2022/12/21 09:11:05;;;;;;;26.95;16.80;;;;;;;4.82;51.74;100908.67;1735423;81;21575;-60
2022/12/21 09:13:32;;;;;;;17.40;9.30;;;;;;;4.80;51.85;100897.91;1747501;81;21415;-63
2022/12/21 09:15:59;;;;;;;28.23;16.57;;;;;;;4.82;51.84;100901.28;1733005;81;21105;-60
2022/12/21 09:18:25;;;;;;;16.27;9.13;;;;;;;4.82;51.80;100898.67;1734787;81;21026;-60
2022/12/21 09:32:56;;;;;;;17.77;9.78;;;;;;;4.95;51.59;100893.26;1738616;81;21101;-60
2022/12/21 09:35:23;;;;;;;22.15;10.93;;;;;;;4.99;51.48;100893.52;1738416;81;21026;-61
2022/12/21 09:37:50;;;;;;;23.92;11.38;;;;;;;5.02;51.38;100894.64;1737020;81;21026;-62
2022/12/21 09:40:19;;;;;;;26.62;19.65;;;;;;;5.05;51.55;100890.22;1739662;81;22443;-60
2022/12/21 09:43:13;;;;;;;26.23;19.85;;;;;;;5.12;51.43;100895.52;1732511;81;21086;-61
2022/12/21 09:45:54;;;;;;;18.17;9.95;;;;;;;5.18;51.20;100890.00;1729407;81;21233;-61
2022/12/21 09:48:28;;;;;;;26.40;17.77;;;;;;;5.28;51.19;100887.31;1733669;81;21069;-61
2022/12/21 09:50:58;;;;;;;17.20;9.05;;;;;;;5.34;51.11;100888.30;1738818;81;21153;-59
2022/12/21 09:53:52;;;;;;;26.20;18.70;;;;;;;5.43;50.99;100880.92;1726876;80;21067;-60
2022/12/21 09:56:22;;;;;;;20.25;9.60;;;;;;;5.51;50.76;100882.69;1759310;80;21658;-63
2022/12/21 09:58:49;;;;;;;25.68;17.70;;;;;;;5.60;50.63;100880.94;1740554;81;21125;-61
2022/12/21 10:01:32;;;;;;;24.35;17.10;;;;;;;5.65;50.18;100875.45;1735468;81;21145;-60
2022/12/21 10:04:12;;;;;;;22.25;16.97;;;;;;;5.69;50.07;100872.61;1738789;81;22207;-59
2022/12/21 10:07:13;;;;;;;17.37;10.55;;;;;;;5.75;49.36;100863.64;1738375;81;21097;-60
2022/12/21 10:10:17;;;;;;;22.27;17.70;;;;;;;5.81;49.33;100859.84;1735206;80;21133;-60
2022/12/21 10:12:59;;;;;;;19.00;9.95;;;;;;;5.92;49.41;100867.97;1744235;80;21291;-61
2022/12/21 10:15:53;;;;;;;24.67;17.25;;;;;;;6.05;48.90;100870.34;1744233;80;21646;-61
2022/12/21 10:18:29;;;;;;;23.73;16.57;;;;;;;6.18;48.75;100873.59;1707671;81;21061;-61
2022/12/21 10:21:22;;;;;;;18.92;9.88;;;;;;;6.30;48.41;100870.31;1739694;79;21176;-61
2022/12/21 10:23:51;;;;;;;21.33;9.80;;;;;;;6.39;47.94;100876.36;1674371;80;21422;-61
2022/12/21 10:26:24;;;;;;;22.22;16.17;;;;;;;6.45;47.70;100869.47;1750446;80;21500;-62
2022/12/21 10:29:09;;;;;;;24.75;17.12;;;;;;;6.49;47.71;100867.55;1741211;80;22152;-61
2022/12/21 10:31:46;;;;;;;20.10;16.05;;;;;;;6.52;47.46;100859.52;1756392;80;21608;-61
2022/12/21 10:34:33;;;;;;;24.27;16.15;;;;;;;6.59;47.08;100857.41;1744430;80;21587;-62
2022/12/21 10:37:03;;;;;;;17.15;10.85;;;;;;;6.62;46.56;100852.88;1743317;80;21038;-61
2022/12/21 10:39:29;;;;;;;22.02;15.43;;;;;;;6.62;46.61;100841.11;1727840;81;21138;-61
2022/12/21 10:42:17;;;;;;;24.02;15.60;;;;;;;6.65;46.52;100836.16;1736417;80;21045;-60
2022/12/21 10:44:43;;;;;;;20.60;14.68;;;;;;;6.67;46.16;100839.52;1758129;80;21086;-61
2022/12/21 10:47:22;;;;;;;20.43;15.63;;;;;;;6.68;46.36;100830.28;1751198;80;21448;-61
2022/12/21 10:50:00;;;;;;;23.15;16.40;;;;;;;6.74;46.68;100829.11;1761004;80;21034;-61
2022/12/21 10:52:41;;;;;;;26.30;17.40;;;;;;;6.80;46.71;100832.66;1735409;80;21645;-61
2022/12/21 10:55:25;;;;;;;24.98;17.42;;;;;;;6.87;46.69;100831.38;1759357;79;21126;-60
2022/12/21 10:58:12;;;;;;;26.20;17.02;;;;;;;6.89;46.66;100819.52;1730907;81;21038;-60
2022/12/21 11:00:40;;;;;;;24.40;16.65;;;;;;;6.87;46.61;100826.61;1732948;81;21126;-61
2022/12/21 11:03:27;;;;;;;22.93;16.07;;;;;;;6.82;46.41;100816.41;1739663;80;21122;-61
2022/12/21 11:05:53;;;;;;;22.15;15.32;;;;;;;6.80;46.60;100819.58;1768835;79;21164;-61
2022/12/21 11:08:30;;;;;;;22.25;15.15;;;;;;;6.79;46.29;100810.52;1758341;79;20995;-61
2022/12/21 11:10:59;;;;;;;24.82;15.53;;;;;;;6.82;46.24;100820.80;1739263;81;21007;-60
2022/12/21 11:13:32;;;;;;;21.27;14.68;;;;;;;6.90;46.34;100815.14;1739661;81;21184;-60
2022/12/21 11:16:06;;;;;;;21.23;14.20;;;;;;;7.02;46.28;100810.02;1733640;81;21059;-61
2022/12/21 11:18:41;;;;;;;22.62;14.25;;;;;;;7.16;45.52;100818.84;1741979;81;22320;-61
2022/12/21 11:21:32;;;;;;;24.40;14.43;;;;;;;7.27;45.19;100820.84;1745516;80;21096;-60
2022/12/21 11:24:33;;;;;;;21.30;14.78;;;;;;;7.38;45.04;100826.27;1759239;80;21074;-60
2022/12/21 11:27:15;;;;;;;18.82;13.78;;;;;;;7.48;44.52;100825.25;1757934;80;21026;-60
2022/12/21 11:29:58;;;;;;;20.17;14.60;;;;;;;7.55;44.03;100828.73;1754713;80;21042;-59
2022/12/21 11:32:26;;;;;;;20.20;14.65;;;;;;;7.58;43.91;100826.38;1739613;80;21247;-59
2022/12/21 11:35:05;;;;;;;21.07;14.13;;;;;;;7.56;43.44;100830.88;1750078;80;21098;-59
2022/12/21 11:37:49;;;;;;;23.00;14.35;;;;;;;7.55;43.58;100823.97;1762686;80;21555;-59
2022/12/21 11:40:23;;;;;;;23.85;15.30;;;;;;;7.57;43.96;100829.95;1759142;80;21035;-59
2022/12/21 11:43:06;;;;;;;21.62;14.93;;;;;;;7.57;43.72;100828.64;1751878;80;21208;-59
2022/12/21 11:46:03;;;;;;;25.52;15.80;;;;;;;7.51;43.91;100812.81;1758965;80;21164;-59
2022/12/21 11:49:01;;;;;;;15.15;7.03;;;;;;;7.43;43.95;100812.42;1762343;80;21094;-60
2022/12/21 11:51:55;;;;;;;20.45;13.28;;;;;;;7.37;44.15;100807.11;1762842;80;21030;-61
2022/12/21 11:54:48;;;;;;;19.17;12.90;;;;;;;7.34;44.54;100801.22;1701927;81;21064;-61
2022/12/21 11:57:43;;;;;;;20.77;12.98;;;;;;;7.42;44.47;100797.67;1753999;80;22352;-60
2022/12/21 12:00:16;;;;;;;19.80;13.60;;;;;;;7.47;44.51;100787.77;1744881;80;21161;-61
2022/12/21 12:03:06;;;;;;;19.45;13.32;;;;;;;7.53;44.47;100791.33;1739151;80;21043;-62
2022/12/21 12:06:11;;;;;;;20.20;14.23;;;;;;;7.56;44.18;100793.73;1750491;80;21098;-60
2022/12/21 12:08:58;;;;;;;17.30;13.70;;;;;;;7.53;44.07;100791.33;1752878;80;22354;-60
2022/12/21 12:11:50;;;;;;;20.00;13.88;;;;;;;7.48;44.24;100788.59;1748529;80;21236;-60
2022/12/21 12:14:40;;;;;;;20.75;12.70;;;;;;;7.43;44.36;100791.48;1738661;80;21253;-60
2022/12/21 12:17:35;;;;;;;20.57;13.68;;;;;;;7.38;44.35;100793.54;1754275;80;21069;-60
2022/12/21 12:20:36;;;;;;;20.75;14.35;;;;;;;7.33;44.69;100798.20;1761382;80;21712;-60
2022/12/21 12:23:14;;;;;;;19.77;13.88;;;;;;;7.30;44.83;100805.80;1746855;80;21030;-61
2022/12/21 12:25:55;;;;;;;21.30;14.10;;;;;;;7.27;45.10;100802.52;1751059;80;21046;-60
2022/12/21 12:28:49;;;;;;;19.62;13.13;;;;;;;7.27;45.11;100805.97;1747421;80;21233;-62
2022/12/21 12:31:39;;;;;;;22.60;13.93;;;;;;;7.34;45.35;100815.61;1763317;80;21065;-61